sensor_id;sensor_type;location;lat;lon;timestamp;P1;durP1;ratioP1;P2;durP2;ratioP2
51122;SDS011;37162;41.724;13.346;2024-02-21T16:26:41;6.43;;;3.63;;
51122;SDS011;37162;41.724;13.346;2024-02-21T16:29:07;4.60;;;2.92;;
51122;SDS011;37162;41.724;13.346;2024-02-21T16:31:33;5.43;;;3.20;;
51122;SDS011;37162;41.724;13.346;2024-02-21T16:34:00;6.40;;;3.67;;
51122;SDS011;37162;41.724;13.346;2024-02-21T16:36:26;4.28;;;2.95;;
51122;SDS011;37162;41.724;13.346;2024-02-21T16:38:51;5.22;;;3.00;;
51122;SDS011;37162;41.724;13.346;2024-02-21T16:41:18;4.88;;;3.13;;
51122;SDS011;37162;41.724;13.346;2024-02-21T16:43:44;3.92;;;2.92;;
51122;SDS011;37162;41.724;13.346;2024-02-21T16:46:11;4.32;;;3.22;;
51122;SDS011;37162;41.724;13.346;2024-02-21T16:48:40;5.40;;;2.80;;
51122;SDS011;37162;41.724;13.346;2024-02-21T16:51:05;4.50;;;3.45;;
51122;SDS011;37162;41.724;13.346;2024-02-21T16:53:32;5.32;;;3.97;;
51122;SDS011;37162;41.724;13.346;2024-02-21T16:55:58;5.43;;;3.40;;
51122;SDS011;37162;41.724;13.346;2024-02-21T16:58:27;5.90;;;3.58;;
51122;SDS011;37162;41.724;13.346;2024-02-21T17:00:55;6.90;;;3.75;;
51122;SDS011;37162;41.724;13.346;2024-02-21T17:03:21;5.25;;;4.13;;
51122;SDS011;37162;41.724;13.346;2024-02-21T17:05:48;6.45;;;4.50;;
51122;SDS011;37162;41.724;13.346;2024-02-21T17:08:15;7.05;;;4.35;;
51122;SDS011;37162;41.724;13.346;2024-02-21T17:10:41;7.80;;;5.30;;
51122;SDS011;37162;41.724;13.346;2024-02-21T17:13:07;8.27;;;5.05;;
51122;SDS011;37162;41.724;13.346;2024-02-21T17:15:32;7.53;;;4.97;;
51122;SDS011;37162;41.724;13.346;2024-02-21T17:17:58;9.20;;;5.88;;
51122;SDS011;37162;41.724;13.346;2024-02-21T17:20:24;8.35;;;5.72;;
51122;SDS011;37162;41.724;13.346;2024-02-21T17:22:49;7.22;;;5.57;;
51122;SDS011;37162;41.724;13.346;2024-02-21T17:25:15;9.15;;;6.43;;
51122;SDS011;37162;41.724;13.346;2024-02-21T17:27:40;12.07;;;6.30;;
51122;SDS011;37162;41.724;13.346;2024-02-21T17:30:06;8.73;;;6.53;;
51122;SDS011;37162;41.724;13.346;2024-02-21T17:32:33;12.50;;;7.35;;
51122;SDS011;37162;41.724;13.346;2024-02-21T17:34:59;11.50;;;6.10;;
51122;SDS011;37162;41.724;13.346;2024-02-21T17:37:26;10.07;;;5.75;;
51122;SDS011;37162;41.724;13.346;2024-02-21T17:39:51;25.40;;;8.82;;
51122;SDS011;37162;41.724;13.346;2024-02-21T17:42:18;21.73;;;8.95;;
51122;SDS011;37162;41.724;13.346;2024-02-21T17:44:44;14.63;;;7.28;;
51122;SDS011;37162;41.724;13.346;2024-02-21T17:47:11;9.98;;;6.18;;
51122;SDS011;37162;41.724;13.346;2024-02-21T17:49:37;7.57;;;6.07;;
51122;SDS011;37162;41.724;13.346;2024-02-21T17:52:09;9.10;;;7.00;;
51122;SDS011;37162;41.724;13.346;2024-02-21T17:54:35;12.05;;;6.38;;
51122;SDS011;37162;41.724;13.346;2024-02-21T17:57:01;8.65;;;6.57;;
51122;SDS011;37162;41.724;13.346;2024-02-21T17:59:27;6.68;;;5.55;;
51122;SDS011;37162;41.724;13.346;2024-02-21T18:01:54;6.28;;;5.05;;
51122;SDS011;37162;41.724;13.346;2024-02-21T18:04:19;8.23;;;5.40;;
51122;SDS011;37162;41.724;13.346;2024-02-21T18:06:45;7.70;;;5.75;;
51122;SDS011;37162;41.724;13.346;2024-02-21T18:09:10;9.32;;;6.15;;
51122;SDS011;37162;41.724;13.346;2024-02-21T18:11:36;8.60;;;6.07;;
51122;SDS011;37162;41.724;13.346;2024-02-21T18:14:03;9.82;;;6.35;;
51122;SDS011;37162;41.724;13.346;2024-02-21T18:16:30;9.15;;;5.93;;
51122;SDS011;37162;41.724;13.346;2024-02-21T18:18:55;7.75;;;5.53;;
51122;SDS011;37162;41.724;13.346;2024-02-21T18:21:21;8.50;;;5.85;;
51122;SDS011;37162;41.724;13.346;2024-02-21T18:23:46;9.45;;;5.53;;
51122;SDS011;37162;41.724;13.346;2024-02-21T18:26:12;8.50;;;5.60;;
51122;SDS011;37162;41.724;13.346;2024-02-21T18:28:37;8.30;;;5.13;;
51122;SDS011;37162;41.724;13.346;2024-02-21T18:31:03;8.35;;;5.45;;
51122;SDS011;37162;41.724;13.346;2024-02-21T18:33:30;7.25;;;5.22;;
51122;SDS011;37162;41.724;13.346;2024-02-21T18:35:56;9.02;;;6.05;;
51122;SDS011;37162;41.724;13.346;2024-02-21T18:38:21;7.32;;;5.30;;
51122;SDS011;37162;41.724;13.346;2024-02-21T18:40:47;9.35;;;6.07;;
51122;SDS011;37162;41.724;13.346;2024-02-21T18:43:13;6.93;;;4.72;;
51122;SDS011;37162;41.724;13.346;2024-02-21T18:45:38;24.23;;;6.22;;
51122;SDS011;37162;41.724;13.346;2024-02-21T18:48:04;9.57;;;5.72;;
51122;SDS011;37162;41.724;13.346;2024-02-21T18:50:29;7.07;;;5.30;;
51122;SDS011;37162;41.724;13.346;2024-02-21T18:52:55;7.60;;;5.80;;
51122;SDS011;37162;41.724;13.346;2024-02-21T18:55:21;9.68;;;5.72;;
51122;SDS011;37162;41.724;13.346;2024-02-21T18:57:46;8.40;;;5.57;;
51122;SDS011;37162;41.724;13.346;2024-02-21T19:00:12;8.65;;;6.00;;
51122;SDS011;37162;41.724;13.346;2024-02-21T19:02:40;10.57;;;5.70;;
51122;SDS011;37162;41.724;13.346;2024-02-21T19:05:06;6.53;;;4.78;;
51122;SDS011;37162;41.724;13.346;2024-02-21T19:07:31;6.95;;;5.32;;
51122;SDS011;37162;41.724;13.346;2024-02-21T19:09:59;7.47;;;5.35;;
51122;SDS011;37162;41.724;13.346;2024-02-21T19:12:26;7.35;;;5.28;;
51122;SDS011;37162;41.724;13.346;2024-02-21T19:14:52;9.95;;;5.88;;
51122;SDS011;37162;41.724;13.346;2024-02-21T19:17:17;8.70;;;5.70;;
51122;SDS011;37162;41.724;13.346;2024-02-21T19:19:43;9.25;;;6.20;;
51122;SDS011;37162;41.724;13.346;2024-02-21T19:22:09;8.15;;;5.55;;
51122;SDS011;37162;41.724;13.346;2024-02-21T19:24:35;15.77;;;5.78;;
51122;SDS011;37162;41.724;13.346;2024-02-21T19:27:01;10.88;;;6.55;;
51122;SDS011;37162;41.724;13.346;2024-02-21T19:29:27;11.27;;;7.30;;
51122;SDS011;37162;41.724;13.346;2024-02-21T19:31:53;10.93;;;7.38;;
51122;SDS011;37162;41.724;13.346;2024-02-21T19:34:18;10.10;;;6.82;;
51122;SDS011;37162;41.724;13.346;2024-02-21T19:36:44;10.70;;;7.45;;
51122;SDS011;37162;41.724;13.346;2024-02-21T19:39:10;10.93;;;6.72;;
51122;SDS011;37162;41.724;13.346;2024-02-21T19:41:36;13.27;;;6.68;;
51122;SDS011;37162;41.724;13.346;2024-02-21T19:44:02;9.95;;;6.40;;
51122;SDS011;37162;41.724;13.346;2024-02-21T19:46:28;11.07;;;7.10;;
51122;SDS011;37162;41.724;13.346;2024-02-21T19:48:53;9.98;;;6.53;;
51122;SDS011;37162;41.724;13.346;2024-02-21T19:51:19;10.65;;;6.97;;
51122;SDS011;37162;41.724;13.346;2024-02-21T19:53:44;9.10;;;6.93;;
51122;SDS011;37162;41.724;13.346;2024-02-21T19:56:10;13.18;;;7.25;;
51122;SDS011;37162;41.724;13.346;2024-02-21T19:58:39;11.30;;;7.30;;
51122;SDS011;37162;41.724;13.346;2024-02-21T20:01:04;9.50;;;6.90;;
51122;SDS011;37162;41.724;13.346;2024-02-21T20:03:30;10.13;;;6.65;;
51122;SDS011;37162;41.724;13.346;2024-02-21T20:05:55;9.13;;;6.28;;
51122;SDS011;37162;41.724;13.346;2024-02-21T20:08:21;11.45;;;7.22;;
51122;SDS011;37162;41.724;13.346;2024-02-21T20:10:49;9.38;;;6.35;;
51122;SDS011;37162;41.724;13.346;2024-02-21T20:13:15;9.43;;;5.82;;
51122;SDS011;37162;41.724;13.346;2024-02-21T20:15:40;9.80;;;6.75;;
51122;SDS011;37162;41.724;13.346;2024-02-21T20:18:07;11.52;;;7.20;;
51122;SDS011;37162;41.724;13.346;2024-02-21T20:20:33;8.15;;;6.35;;
51122;SDS011;37162;41.724;13.346;2024-02-21T20:23:00;9.82;;;5.70;;
51122;SDS011;37162;41.724;13.346;2024-02-21T20:25:26;9.32;;;6.68;;
51122;SDS011;37162;41.724;13.346;2024-02-21T20:27:52;13.15;;;6.65;;
51122;SDS011;37162;41.724;13.346;2024-02-21T20:30:18;10.05;;;6.38;;
51122;SDS011;37162;41.724;13.346;2024-02-21T20:32:43;12.48;;;7.03;;
51122;SDS011;37162;41.724;13.346;2024-02-21T20:35:09;10.90;;;7.55;;
51122;SDS011;37162;41.724;13.346;2024-02-21T20:37:35;9.40;;;6.78;;
51122;SDS011;37162;41.724;13.346;2024-02-21T20:40:01;9.27;;;7.38;;
51122;SDS011;37162;41.724;13.346;2024-02-21T20:42:32;10.13;;;7.22;;
51122;SDS011;37162;41.724;13.346;2024-02-21T20:44:57;12.07;;;7.88;;
51122;SDS011;37162;41.724;13.346;2024-02-21T20:47:23;13.38;;;8.65;;
51122;SDS011;37162;41.724;13.346;2024-02-21T20:49:50;13.52;;;8.25;;
51122;SDS011;37162;41.724;13.346;2024-02-21T20:52:18;12.38;;;7.95;;
51122;SDS011;37162;41.724;13.346;2024-02-21T20:54:44;14.77;;;8.38;;
51122;SDS011;37162;41.724;13.346;2024-02-21T20:57:10;12.35;;;8.25;;
51122;SDS011;37162;41.724;13.346;2024-02-21T20:59:35;13.15;;;8.75;;
51122;SDS011;37162;41.724;13.346;2024-02-21T21:02:01;14.00;;;8.05;;
51122;SDS011;37162;41.724;13.346;2024-02-21T21:04:27;11.93;;;7.40;;
51122;SDS011;37162;41.724;13.346;2024-02-21T21:06:53;12.00;;;6.55;;
51122;SDS011;37162;41.724;13.346;2024-02-21T21:09:19;9.13;;;6.95;;
51122;SDS011;37162;41.724;13.346;2024-02-21T21:11:45;11.82;;;6.78;;
51122;SDS011;37162;41.724;13.346;2024-02-21T21:14:11;12.18;;;7.68;;
51122;SDS011;37162;41.724;13.346;2024-02-21T21:16:37;8.98;;;6.53;;
51122;SDS011;37162;41.724;13.346;2024-02-21T21:19:02;11.27;;;7.40;;
51122;SDS011;37162;41.724;13.346;2024-02-21T21:21:27;8.65;;;6.22;;
51122;SDS011;37162;41.724;13.346;2024-02-21T21:23:54;11.52;;;6.60;;
51122;SDS011;37162;41.724;13.346;2024-02-21T21:26:20;10.60;;;6.25;;
51122;SDS011;37162;41.724;13.346;2024-02-21T21:28:45;8.10;;;5.55;;
51122;SDS011;37162;41.724;13.346;2024-02-21T21:31:11;7.93;;;5.93;;
51122;SDS011;37162;41.724;13.346;2024-02-21T21:33:37;6.43;;;4.60;;
51122;SDS011;37162;41.724;13.346;2024-02-21T21:36:03;7.47;;;5.10;;
51122;SDS011;37162;41.724;13.346;2024-02-21T21:38:30;6.80;;;5.10;;
51122;SDS011;37162;41.724;13.346;2024-02-21T21:40:56;6.75;;;4.97;;
51122;SDS011;37162;41.724;13.346;2024-02-21T21:43:25;7.90;;;5.15;;
51122;SDS011;37162;41.724;13.346;2024-02-21T21:45:50;6.90;;;5.03;;
51122;SDS011;37162;41.724;13.346;2024-02-21T21:48:15;8.50;;;5.18;;
51122;SDS011;37162;41.724;13.346;2024-02-21T21:50:41;9.43;;;4.60;;
51122;SDS011;37162;41.724;13.346;2024-02-21T21:53:07;6.25;;;4.38;;
51122;SDS011;37162;41.724;13.346;2024-02-21T21:55:33;6.65;;;4.85;;
51122;SDS011;37162;41.724;13.346;2024-02-21T21:57:58;6.55;;;4.38;;
51122;SDS011;37162;41.724;13.346;2024-02-21T22:00:24;7.47;;;4.65;;
51122;SDS011;37162;41.724;13.346;2024-02-21T22:02:49;7.30;;;4.43;;
51122;SDS011;37162;41.724;13.346;2024-02-21T22:05:15;8.85;;;4.63;;
51122;SDS011;37162;41.724;13.346;2024-02-21T22:07:40;7.68;;;4.40;;
51122;SDS011;37162;41.724;13.346;2024-02-21T22:10:06;6.20;;;4.22;;
51122;SDS011;37162;41.724;13.346;2024-02-21T22:12:32;6.53;;;4.18;;
51122;SDS011;37162;41.724;13.346;2024-02-21T22:14:58;8.82;;;3.97;;
51122;SDS011;37162;41.724;13.346;2024-02-21T22:17:23;5.20;;;3.78;;
51122;SDS011;37162;41.724;13.346;2024-02-21T22:19:49;4.47;;;3.28;;
51122;SDS011;37162;41.724;13.346;2024-02-21T22:22:14;6.88;;;4.13;;
51122;SDS011;37162;41.724;13.346;2024-02-21T22:24:39;7.18;;;4.93;;
51122;SDS011;37162;41.724;13.346;2024-02-21T22:27:09;4.82;;;3.88;;
51122;SDS011;37162;41.724;13.346;2024-02-21T22:29:37;5.07;;;3.78;;
51122;SDS011;37162;41.724;13.346;2024-02-21T22:32:03;6.88;;;3.92;;
51122;SDS011;37162;41.724;13.346;2024-02-21T22:34:30;4.47;;;3.53;;
51122;SDS011;37162;41.724;13.346;2024-02-21T22:36:56;5.47;;;4.05;;
51122;SDS011;37162;41.724;13.346;2024-02-21T22:39:22;6.63;;;3.70;;
51122;SDS011;37162;41.724;13.346;2024-02-21T22:41:49;5.82;;;4.03;;
51122;SDS011;37162;41.724;13.346;2024-02-21T22:44:14;4.85;;;3.97;;
51122;SDS011;37162;41.724;13.346;2024-02-21T22:46:40;7.13;;;3.80;;
51122;SDS011;37162;41.724;13.346;2024-02-21T22:49:06;7.32;;;3.97;;
51122;SDS011;37162;41.724;13.346;2024-02-21T22:51:31;6.13;;;3.92;;
51122;SDS011;37162;41.724;13.346;2024-02-21T22:53:56;7.25;;;3.92;;
51122;SDS011;37162;41.724;13.346;2024-02-21T22:56:22;6.35;;;4.13;;
51122;SDS011;37162;41.724;13.346;2024-02-21T22:58:48;6.97;;;3.78;;
51122;SDS011;37162;41.724;13.346;2024-02-21T23:01:15;7.32;;;4.15;;
51122;SDS011;37162;41.724;13.346;2024-02-21T23:03:42;12.85;;;4.65;;
51122;SDS011;37162;41.724;13.346;2024-02-21T23:06:08;12.73;;;4.97;;
51122;SDS011;37162;41.724;13.346;2024-02-21T23:08:37;9.88;;;3.90;;
51122;SDS011;37162;41.724;13.346;2024-02-21T23:11:03;5.88;;;3.90;;
51122;SDS011;37162;41.724;13.346;2024-02-21T23:13:34;4.85;;;3.53;;
51122;SDS011;37162;41.724;13.346;2024-02-21T23:16:00;5.68;;;3.90;;
51122;SDS011;37162;41.724;13.346;2024-02-21T23:18:25;4.63;;;3.60;;
51122;SDS011;37162;41.724;13.346;2024-02-21T23:20:51;4.53;;;3.17;;
51122;SDS011;37162;41.724;13.346;2024-02-21T23:23:19;5.57;;;3.95;;
51122;SDS011;37162;41.724;13.346;2024-02-21T23:25:45;4.88;;;3.20;;
51122;SDS011;37162;41.724;13.346;2024-02-21T23:28:10;5.65;;;3.75;;
51122;SDS011;37162;41.724;13.346;2024-02-21T23:30:36;4.50;;;3.10;;
51122;SDS011;37162;41.724;13.346;2024-02-21T23:33:02;5.70;;;3.13;;
51122;SDS011;37162;41.724;13.346;2024-02-21T23:35:28;4.95;;;3.25;;
51122;SDS011;37162;41.724;13.346;2024-02-21T23:37:53;3.70;;;2.90;;
51122;SDS011;37162;41.724;13.346;2024-02-21T23:40:19;4.97;;;3.20;;
51122;SDS011;37162;41.724;13.346;2024-02-21T23:42:47;5.80;;;3.38;;
51122;SDS011;37162;41.724;13.346;2024-02-21T23:45:12;4.65;;;2.75;;
51122;SDS011;37162;41.724;13.346;2024-02-21T23:47:38;6.68;;;3.85;;
51122;SDS011;37162;41.724;13.346;2024-02-21T23:50:04;3.55;;;2.53;;
51122;SDS011;37162;41.724;13.346;2024-02-21T23:52:30;5.13;;;3.15;;
51122;SDS011;37162;41.724;13.346;2024-02-21T23:54:56;4.72;;;2.85;;
51122;SDS011;37162;41.724;13.346;2024-02-21T23:57:22;5.05;;;2.80;;
51122;SDS011;37162;41.724;13.346;2024-02-21T23:59:48;5.45;;;3.00;;
